createdAt,value
2023-04-09T00:02:10.365Z,20.98
2023-04-09T00:04:37.853Z,21.13
2023-04-09T00:07:05.222Z,19.02
2023-04-09T00:09:32.602Z,21.27
2023-04-09T00:11:59.941Z,23.23
2023-04-09T00:14:27.240Z,18.10
2023-04-09T00:16:54.715Z,22.23
2023-04-09T00:19:21.999Z,19.42
2023-04-09T00:21:49.417Z,19.85
2023-04-09T00:24:16.759Z,19.30
2023-04-09T00:26:44.225Z,18.38
2023-04-09T00:29:11.573Z,19.02
2023-04-09T00:31:38.901Z,18.70
2023-04-09T00:34:07.084Z,17.52
2023-04-09T00:36:34.409Z,17.58
2023-04-09T00:39:01.758Z,21.40
2023-04-09T00:41:29.093Z,18.17
2023-04-09T00:43:57.334Z,15.65
2023-04-09T00:46:24.742Z,18.98
2023-04-09T00:48:52.343Z,18.55
2023-04-09T00:51:20.577Z,18.77
2023-04-09T00:53:47.906Z,17.45
2023-04-09T00:56:16.022Z,19.17
2023-04-09T00:58:43.351Z,16.08
2023-04-09T01:01:10.899Z,15.90
2023-04-09T01:03:38.317Z,15.95
2023-04-09T01:06:11.390Z,13.50
2023-04-09T01:08:44.532Z,15.00
2023-04-09T01:11:31.014Z,14.80
2023-04-09T01:14:03.902Z,14.73
2023-04-09T01:16:31.994Z,15.55
2023-04-09T01:19:02.356Z,14.50
2023-04-09T01:21:33.420Z,14.70
2023-04-09T01:24:38.711Z,14.40
2023-04-09T01:29:57.849Z,14.68
2023-04-09T01:32:25.421Z,14.10
2023-04-09T01:34:52.788Z,15.98
2023-04-09T01:37:20.522Z,16.17
2023-04-09T01:39:47.864Z,19.25
2023-04-09T01:42:15.522Z,19.48
2023-04-09T01:44:42.875Z,16.85
2023-04-09T01:47:10.244Z,19.05
2023-04-09T01:49:38.450Z,17.85
2023-04-09T01:52:05.912Z,16.92
2023-04-09T01:54:33.454Z,20.80
2023-04-09T01:57:01.196Z,18.40
2023-04-09T01:59:28.499Z,17.80
2023-04-09T02:02:04.647Z,16.90
2023-04-09T02:04:43.880Z,17.75
2023-04-09T02:07:24.947Z,18.27
2023-04-09T02:09:52.744Z,17.27
2023-04-09T02:12:20.503Z,18.55
2023-04-09T02:14:48.222Z,21.05
2023-04-09T02:17:15.610Z,19.52
2023-04-09T02:19:44.671Z,19.48
2023-04-09T02:22:12.176Z,17.15
2023-04-09T02:24:40.518Z,22.50
2023-04-09T02:27:07.982Z,18.88
2023-04-09T02:29:35.354Z,17.73
2023-04-09T02:32:02.718Z,18.15
2023-04-09T02:34:30.284Z,22.50
2023-04-09T02:36:57.640Z,21.98
2023-04-09T02:39:25.155Z,22.85
2023-04-09T02:41:52.737Z,21.20
2023-04-09T02:44:20.168Z,19.40
2023-04-09T02:46:49.209Z,21.67
2023-04-09T02:49:16.836Z,22.70
2023-04-09T02:51:44.175Z,21.15
2023-04-09T02:54:11.513Z,21.85
2023-04-09T02:56:38.892Z,21.95
2023-04-09T02:59:06.170Z,20.17
2023-04-09T03:01:33.677Z,22.63
2023-04-09T03:04:01.792Z,20.98
2023-04-09T03:06:29.313Z,23.13
2023-04-09T03:08:56.652Z,20.90
2023-04-09T03:11:23.988Z,18.50
2023-04-09T03:13:51.337Z,21.80
2023-04-09T03:16:19.286Z,19.50
2023-04-09T03:18:46.701Z,22.13
2023-04-09T03:21:14.961Z,29.33
2023-04-09T03:23:47.639Z,19.90
2023-04-09T03:26:14.934Z,21.73
2023-04-09T03:28:47.206Z,23.60
2023-04-09T03:31:14.746Z,19.75
2023-04-09T03:33:43.553Z,21.23
2023-04-09T03:36:11.818Z,23.50
2023-04-09T03:38:53.567Z,21.45
2023-04-09T03:41:32.074Z,23.13
2023-04-09T03:44:03.383Z,19.23
2023-04-09T03:46:37.330Z,21.08
2023-04-09T03:49:07.850Z,22.05
2023-04-09T03:51:41.955Z,22.02
2023-04-09T03:54:09.591Z,22.08
2023-04-09T03:56:37.117Z,22.42
2023-04-09T03:59:09.126Z,24.17
2023-04-09T04:01:40.487Z,24.80
2023-04-09T04:04:08.050Z,24.50
2023-04-09T04:06:44.544Z,24.08
2023-04-09T04:09:30.486Z,28.48
2023-04-09T04:12:05.817Z,24.13
2023-04-09T04:14:53.190Z,29.98
2023-04-09T04:17:26.546Z,27.00
2023-04-09T04:19:55.304Z,26.83
2023-04-09T04:22:26.097Z,26.67
2023-04-09T04:24:56.359Z,29.48
2023-04-09T04:27:24.239Z,29.13
2023-04-09T04:29:51.762Z,29.30
2023-04-09T04:32:37.667Z,24.42
2023-04-09T04:35:09.414Z,28.65
2023-04-09T04:37:37.031Z,29.00
2023-04-09T04:40:05.457Z,31.67
2023-04-09T04:42:36.181Z,29.98
2023-04-09T04:45:09.983Z,28.70
2023-04-09T04:48:03.323Z,30.00
2023-04-09T04:50:31.287Z,31.23
2023-04-09T04:53:07.928Z,38.88
2023-04-09T04:55:43.854Z,30.17
2023-04-09T04:58:14.694Z,28.35
2023-04-09T05:00:46.885Z,30.85
2023-04-09T05:03:15.072Z,31.02
2023-04-09T05:05:53.862Z,31.73
2023-04-09T05:08:22.123Z,30.88
2023-04-09T05:10:55.960Z,31.88
2023-04-09T05:15:54.261Z,30.20
2023-04-09T05:18:21.737Z,31.25
2023-04-09T05:20:49.074Z,30.52
2023-04-09T05:23:17.295Z,31.38
2023-04-09T05:25:51.476Z,32.90
2023-04-09T05:28:27.612Z,28.27
2023-04-09T05:31:11.752Z,32.05
2023-04-09T05:33:44.102Z,29.27
2023-04-09T05:36:18.568Z,31.10
2023-04-09T05:38:49.005Z,30.55
2023-04-09T05:41:16.301Z,33.30
2023-04-09T05:44:00.787Z,30.73
2023-04-09T05:46:29.219Z,31.58
2023-04-09T05:48:57.684Z,31.20
2023-04-09T05:51:27.356Z,31.90
2023-04-09T05:53:56.918Z,30.73
2023-04-09T05:56:24.351Z,35.60
2023-04-09T05:58:55.632Z,32.20
2023-04-09T06:01:23.241Z,33.78
2023-04-09T06:03:50.901Z,34.40
2023-04-09T06:06:18.569Z,32.70
2023-04-09T06:08:46.079Z,32.83
2023-04-09T06:11:13.468Z,37.35
2023-04-09T06:13:41.473Z,32.05
2023-04-09T06:16:09.279Z,30.83
2023-04-09T06:18:39.759Z,31.75
2023-04-09T06:21:07.661Z,30.42
2023-04-09T06:23:35.850Z,30.25
2023-04-09T06:26:03.188Z,32.75
2023-04-09T06:28:31.542Z,33.15
2023-04-09T06:30:59.031Z,29.55
2023-04-09T06:33:28.492Z,28.63
2023-04-09T06:35:56.303Z,28.75
2023-04-09T06:38:23.710Z,28.23
2023-04-09T06:40:52.024Z,27.95
2023-04-09T06:43:19.497Z,25.23
2023-04-09T06:45:51.441Z,25.05
2023-04-09T06:48:18.762Z,27.25
2023-04-09T06:50:46.109Z,25.80
2023-04-09T06:53:14.692Z,25.25
2023-04-09T06:55:42.177Z,25.23
2023-04-09T06:58:09.491Z,28.27
2023-04-09T07:00:36.807Z,24.55
2023-04-09T07:03:05.525Z,23.38
2023-04-09T07:05:33.261Z,25.52
2023-04-09T07:08:00.627Z,23.73
2023-04-09T07:10:27.942Z,23.35
2023-04-09T07:12:55.218Z,23.55
2023-04-09T07:15:22.605Z,20.83
2023-04-09T07:17:50.012Z,23.55
2023-04-09T07:20:17.497Z,22.88
2023-04-09T07:22:44.814Z,22.67
2023-04-09T07:25:12.170Z,20.83
2023-04-09T07:27:39.473Z,20.25
2023-04-09T07:30:07.439Z,18.63
2023-04-09T07:32:34.761Z,20.83
2023-04-09T07:35:03.127Z,20.48
2023-04-09T07:37:30.528Z,21.55
2023-04-09T07:39:57.887Z,21.15
2023-04-09T07:42:25.690Z,19.98
2023-04-09T07:44:53.692Z,22.98
2023-04-09T07:47:21.752Z,18.88
2023-04-09T07:49:49.263Z,22.88
2023-04-09T07:52:16.680Z,20.42
2023-04-09T07:54:44.034Z,17.45
2023-04-09T07:57:11.410Z,19.63
2023-04-09T07:59:38.784Z,18.80
2023-04-09T08:02:06.611Z,20.88
2023-04-09T08:04:34.200Z,19.58
2023-04-09T08:07:01.596Z,20.55
2023-04-09T08:09:28.930Z,19.00
2023-04-09T08:11:57.227Z,19.85
2023-04-09T08:14:24.573Z,22.13
2023-04-09T08:16:52.005Z,20.67
2023-04-09T08:19:20.350Z,23.48
2023-04-09T08:21:49.584Z,19.23
2023-04-09T08:24:17.238Z,24.33
2023-04-09T08:26:44.908Z,21.15
2023-04-09T08:29:12.974Z,21.40
2023-04-09T08:31:40.394Z,23.52
2023-04-09T08:34:07.818Z,19.00
2023-04-09T08:36:35.848Z,19.85
2023-04-09T08:39:03.688Z,19.77
2023-04-09T08:41:31.287Z,20.88
2023-04-09T08:43:59.778Z,20.25
2023-04-09T08:46:27.965Z,20.17
2023-04-09T08:48:55.739Z,18.70
2023-04-09T08:51:24.839Z,18.60
2023-04-09T08:54:00.198Z,20.13
2023-04-09T08:56:29.556Z,22.65
2023-04-09T08:58:56.964Z,19.70
2023-04-09T09:01:28.635Z,22.10
2023-04-09T09:04:04.286Z,21.85
2023-04-09T09:06:33.873Z,21.80
2023-04-09T09:09:14.653Z,24.05
2023-04-09T09:11:42.539Z,26.90
2023-04-09T09:14:14.149Z,21.60
2023-04-09T09:16:43.522Z,23.55
2023-04-09T09:19:26.536Z,28.85
2023-04-09T09:21:57.553Z,27.63
2023-04-09T09:24:24.836Z,28.88
2023-04-09T09:26:52.518Z,25.88
2023-04-09T09:29:20.151Z,26.02
2023-04-09T09:31:49.449Z,23.05
2023-04-09T09:34:17.469Z,28.55
2023-04-09T09:36:45.037Z,26.95
2023-04-09T09:39:13.210Z,24.83
2023-04-09T09:41:41.713Z,27.17
2023-04-09T09:44:10.385Z,24.80
2023-04-09T09:46:39.297Z,26.25
2023-04-09T09:49:07.079Z,24.77
2023-04-09T09:51:39.446Z,24.70
2023-04-09T09:54:08.245Z,27.58
2023-04-09T09:56:37.092Z,23.35
2023-04-09T09:59:08.174Z,26.38
2023-04-09T10:01:36.636Z,25.17
2023-04-09T10:04:05.888Z,26.15
2023-04-09T10:06:34.525Z,24.98
2023-04-09T10:09:04.788Z,24.85
2023-04-09T10:11:33.655Z,27.20
2023-04-09T10:14:01.168Z,27.02
2023-04-09T10:16:28.616Z,25.40
2023-04-09T10:18:56.517Z,25.88
2023-04-09T10:21:37.102Z,26.25
2023-04-09T10:24:06.562Z,26.92
2023-04-09T10:26:34.354Z,27.15
2023-04-09T10:29:08.635Z,28.10
2023-04-09T10:31:55.899Z,25.67
2023-04-09T10:34:24.406Z,27.27
2023-04-09T10:36:55.417Z,31.23
2023-04-09T10:39:27.142Z,26.38
2023-04-09T10:41:54.774Z,29.35
2023-04-09T10:44:27.104Z,25.15
2023-04-09T10:46:58.508Z,28.13
2023-04-09T10:49:26.562Z,26.42
2023-04-09T10:52:09.560Z,28.00
2023-04-09T10:54:48.338Z,26.45
2023-04-09T10:57:20.165Z,27.88
2023-04-09T10:59:49.317Z,26.88
2023-04-09T11:02:37.950Z,30.33
2023-04-09T11:05:24.361Z,29.20
2023-04-09T11:07:58.711Z,28.17
2023-04-09T11:10:26.793Z,27.17
2023-04-09T11:12:56.787Z,29.05
2023-04-09T11:15:24.101Z,27.58
2023-04-09T11:17:51.492Z,27.35
2023-04-09T11:20:23.083Z,26.38
2023-04-09T11:22:51.485Z,21.75
2023-04-09T11:25:23.908Z,28.35
2023-04-09T11:27:51.326Z,21.33
2023-04-09T11:30:18.863Z,22.85
2023-04-09T11:32:46.450Z,23.63
2023-04-09T11:35:14.904Z,23.17
2023-04-09T11:37:42.926Z,20.80
2023-04-09T11:40:17.032Z,23.05
2023-04-09T11:42:45.096Z,23.67
2023-04-09T11:45:12.659Z,25.77
2023-04-09T11:47:41.698Z,23.88
2023-04-09T11:50:11.990Z,24.10
2023-04-09T11:52:40.187Z,24.13
2023-04-09T11:55:08.657Z,23.27
2023-04-09T11:57:46.583Z,24.55
2023-04-09T12:00:14.973Z,24.98
2023-04-09T12:02:58.493Z,24.83
2023-04-09T12:05:29.047Z,24.92
2023-04-09T12:08:04.971Z,26.00
2023-04-09T12:10:33.781Z,26.95
2023-04-09T12:13:10.201Z,27.73
2023-04-09T12:15:38.869Z,34.22
2023-04-09T12:18:08.514Z,28.77
2023-04-09T12:20:36.695Z,30.38
2023-04-09T12:23:04.882Z,26.52
2023-04-09T12:25:36.944Z,29.50
2023-04-09T12:28:05.632Z,28.65
2023-04-09T12:30:33.656Z,27.05
2023-04-09T12:33:01.469Z,28.58
2023-04-09T12:35:29.298Z,27.60
2023-04-09T12:37:56.774Z,25.42
2023-04-09T12:40:24.134Z,27.30
2023-04-09T12:42:51.709Z,23.92
2023-04-09T12:45:19.697Z,25.38
2023-04-09T12:47:47.411Z,26.75
2023-04-09T12:50:16.113Z,25.80
2023-04-09T12:52:44.252Z,24.90
2023-04-09T12:55:12.010Z,30.98
2023-04-09T12:57:39.692Z,29.27
2023-04-09T13:00:07.999Z,25.50
2023-04-09T13:02:36.033Z,26.67
2023-04-09T13:05:04.452Z,25.05
2023-04-09T13:07:31.859Z,24.98
2023-04-09T13:09:59.169Z,25.42
2023-04-09T13:12:26.783Z,24.30
2023-04-09T13:14:54.463Z,26.20
2023-04-09T13:17:22.301Z,27.50
2023-04-09T13:19:50.670Z,26.42
2023-04-09T13:22:18.740Z,27.48
2023-04-09T13:24:46.195Z,26.45
2023-04-09T13:27:14.099Z,25.75
2023-04-09T13:29:41.490Z,27.85
2023-04-09T13:32:10.780Z,29.45
2023-04-09T13:34:38.703Z,26.85
2023-04-09T13:37:06.231Z,27.75
2023-04-09T13:39:33.595Z,27.80
2023-04-09T13:42:07.341Z,27.45
2023-04-09T13:44:37.565Z,29.83
2023-04-09T13:47:04.902Z,30.25
2023-04-09T13:49:32.209Z,31.10
2023-04-09T13:51:59.571Z,29.60
2023-04-09T13:54:27.204Z,26.23
2023-04-09T13:56:54.528Z,21.48
2023-04-09T13:59:21.857Z,25.13
2023-04-09T14:01:49.264Z,26.92
2023-04-09T14:04:16.743Z,25.50
2023-04-09T14:06:44.192Z,24.73
2023-04-09T14:09:11.625Z,21.65
2023-04-09T14:11:39.036Z,21.05
2023-04-09T14:14:06.452Z,23.35
2023-04-09T14:16:33.911Z,23.45
2023-04-09T14:19:01.589Z,25.27
2023-04-09T14:21:29.288Z,24.33
2023-04-09T14:23:56.623Z,22.80
2023-04-09T14:26:24.367Z,23.33
2023-04-09T14:28:52.223Z,23.33
2023-04-09T14:31:22.622Z,18.48
2023-04-09T14:33:50.317Z,17.90
2023-04-09T14:36:17.771Z,15.88
2023-04-09T14:38:45.898Z,14.40
2023-04-09T14:41:13.296Z,14.07
2023-04-09T14:43:40.830Z,13.80
2023-04-09T14:46:11.699Z,17.27
2023-04-09T14:48:39.977Z,19.17
2023-04-09T14:51:11.252Z,20.88
2023-04-09T14:53:38.685Z,20.95
2023-04-09T14:56:06.648Z,21.95
2023-04-09T14:58:34.011Z,21.48
2023-04-09T15:01:01.455Z,22.92
2023-04-09T15:03:28.947Z,23.08
2023-04-09T15:05:56.846Z,25.02
2023-04-09T15:08:24.164Z,22.27
2023-04-09T15:10:51.532Z,21.10
2023-04-09T15:13:18.852Z,22.52
2023-04-09T15:15:46.463Z,20.30
2023-04-09T15:18:13.750Z,20.15
2023-04-09T15:20:42.366Z,19.90
2023-04-09T15:23:12.906Z,20.40
2023-04-09T15:25:40.282Z,17.63
2023-04-09T15:28:07.673Z,20.25
2023-04-09T15:30:35.519Z,18.50
2023-04-09T15:33:02.986Z,20.17
2023-04-09T15:35:30.595Z,20.65
2023-04-09T15:37:58.097Z,20.65
2023-04-09T15:40:25.446Z,20.23
2023-04-09T15:42:52.735Z,18.48
2023-04-09T15:45:20.137Z,16.15
2023-04-09T15:47:47.465Z,17.08
2023-04-09T15:50:14.776Z,18.38
2023-04-09T15:52:42.161Z,20.85
2023-04-09T15:55:10.006Z,18.27
2023-04-09T15:57:38.538Z,18.63
2023-04-09T16:00:09.723Z,16.48
2023-04-09T16:02:38.979Z,16.23
2023-04-09T16:05:07.211Z,16.23
2023-04-09T16:07:34.650Z,18.02
2023-04-09T16:10:02.237Z,20.70
2023-04-09T16:12:29.603Z,17.08
2023-04-09T16:14:56.944Z,18.92
2023-04-09T16:17:24.349Z,17.90
2023-04-09T16:19:51.772Z,17.40
2023-04-09T16:22:19.073Z,17.20
2023-04-09T16:24:46.397Z,20.10
2023-04-09T16:27:14.468Z,17.35
2023-04-09T16:29:42.174Z,17.02
2023-04-09T16:32:09.591Z,17.63
2023-04-09T16:34:36.985Z,17.58
2023-04-09T16:37:04.351Z,17.92
2023-04-09T16:39:31.609Z,16.20
2023-04-09T16:41:59.016Z,16.90
2023-04-09T16:44:26.747Z,17.67
2023-04-09T16:46:54.140Z,15.20
2023-04-09T16:49:21.402Z,17.73
2023-04-09T16:51:50.765Z,17.40
2023-04-09T16:54:18.099Z,16.83
2023-04-09T16:56:45.448Z,17.08
2023-04-09T16:59:13.518Z,18.27
2023-04-09T17:01:41.082Z,19.10
2023-04-09T17:04:08.491Z,20.92
2023-04-09T17:06:35.806Z,17.70
2023-04-09T17:09:05.354Z,18.77
2023-04-09T17:11:34.649Z,16.67
2023-04-09T17:14:01.993Z,18.40
2023-04-09T17:16:29.420Z,17.50
2023-04-09T17:18:56.770Z,18.77
2023-04-09T17:21:24.139Z,16.92
2023-04-09T17:23:51.437Z,17.38
2023-04-09T17:26:19.006Z,19.05
2023-04-09T17:28:46.958Z,16.67
2023-04-09T17:31:15.814Z,20.02
2023-04-09T17:33:49.277Z,16.45
2023-04-09T17:36:20.394Z,14.75
2023-04-09T17:38:48.645Z,18.48
2023-04-09T17:41:16.016Z,16.25
2023-04-09T17:43:43.332Z,15.18
2023-04-09T17:46:11.628Z,14.52
2023-04-09T17:48:39.226Z,13.43
2023-04-09T17:51:07.211Z,13.13
2023-04-09T17:53:34.565Z,12.70
2023-04-09T17:56:04.030Z,15.68
2023-04-09T17:58:31.855Z,13.75
2023-04-09T18:00:59.615Z,15.00
2023-04-09T18:03:27.365Z,13.38
2023-04-09T18:05:54.975Z,16.38
2023-04-09T18:08:22.335Z,14.70
2023-04-09T18:11:04.941Z,16.67
2023-04-09T18:13:38.590Z,18.00
2023-04-09T18:16:10.113Z,21.58
2023-04-09T18:18:37.709Z,21.40
2023-04-09T18:21:06.210Z,19.55
2023-04-09T18:23:33.695Z,14.98
2023-04-09T18:26:01.067Z,18.02
2023-04-09T18:28:28.421Z,15.20
2023-04-09T18:30:55.878Z,15.65
2023-04-09T18:33:23.362Z,16.30
2023-04-09T18:35:50.707Z,14.52
2023-04-09T18:38:18.314Z,18.75
2023-04-09T18:40:45.661Z,17.50
2023-04-09T18:43:13.014Z,17.58
2023-04-09T18:45:40.808Z,17.13
2023-04-09T18:48:08.959Z,17.55
2023-04-09T18:50:36.711Z,15.35
2023-04-09T18:53:05.551Z,15.73
2023-04-09T18:55:35.835Z,14.80
2023-04-09T18:58:05.262Z,17.17
2023-04-09T19:00:32.659Z,18.52
2023-04-09T19:03:00.168Z,20.95
2023-04-09T19:05:29.598Z,18.13
2023-04-09T19:08:03.122Z,17.40
2023-04-09T19:10:30.702Z,15.90
2023-04-09T19:12:58.175Z,16.98
2023-04-09T19:15:26.686Z,19.65
2023-04-09T19:17:54.233Z,18.58
2023-04-09T19:20:21.870Z,18.38
2023-04-09T19:22:50.203Z,19.17
2023-04-09T19:25:18.343Z,19.10
2023-04-09T19:27:45.816Z,19.83
2023-04-09T19:30:13.308Z,20.77
2023-04-09T19:32:41.679Z,21.17
2023-04-09T19:35:09.250Z,19.25
2023-04-09T19:37:36.589Z,21.50
2023-04-09T19:40:04.661Z,23.75
2023-04-09T19:42:34.743Z,27.33
2023-04-09T19:45:02.061Z,22.13
2023-04-09T19:47:29.497Z,22.83
2023-04-09T19:49:57.277Z,24.45
2023-04-09T19:52:24.941Z,21.25
2023-04-09T19:54:56.324Z,25.52
2023-04-09T19:57:23.795Z,24.35
2023-04-09T19:59:52.293Z,24.30
2023-04-09T20:02:19.890Z,24.65
2023-04-09T20:04:47.388Z,23.02
2023-04-09T20:07:15.648Z,24.20
2023-04-09T20:09:43.582Z,24.05
2023-04-09T20:12:11.116Z,23.05
2023-04-09T20:14:39.261Z,24.50
2023-04-09T20:17:08.743Z,25.73
2023-04-09T20:19:36.181Z,27.13
2023-04-09T20:22:03.551Z,23.75
2023-04-09T20:24:30.924Z,22.63
2023-04-09T20:26:59.653Z,27.08
2023-04-09T20:29:27.123Z,22.52
2023-04-09T20:31:54.603Z,24.75
2023-04-09T20:34:26.591Z,23.23
2023-04-09T20:36:54.537Z,25.48
2023-04-09T20:39:22.347Z,23.77
2023-04-09T20:41:49.653Z,24.77
2023-04-09T20:44:16.983Z,24.83
2023-04-09T20:46:44.358Z,24.85
2023-04-09T20:49:12.237Z,24.40
2023-04-09T20:51:39.927Z,26.40
2023-04-09T20:54:07.257Z,26.25
2023-04-09T20:56:34.911Z,24.73
2023-04-09T20:59:02.284Z,27.40
2023-04-09T21:01:29.954Z,26.83
2023-04-09T21:03:57.543Z,29.50
2023-04-09T21:06:25.142Z,26.38
2023-04-09T21:08:52.790Z,27.33
2023-04-09T21:11:20.546Z,26.35
2023-04-09T21:13:54.529Z,24.00
2023-04-09T21:16:23.036Z,26.25
2023-04-09T21:18:50.756Z,23.98
2023-04-09T21:21:18.359Z,25.10
2023-04-09T21:23:45.708Z,24.98
2023-04-09T21:26:14.142Z,23.48
2023-04-09T21:28:41.491Z,26.00
2023-04-09T21:31:13.047Z,23.95
2023-04-09T21:33:40.626Z,25.98
2023-04-09T21:36:08.422Z,27.00
2023-04-09T21:38:35.911Z,23.23
2023-04-09T21:41:03.228Z,23.60
2023-04-09T21:43:30.785Z,26.08
2023-04-09T21:45:58.142Z,23.85
2023-04-09T21:48:26.497Z,22.40
2023-04-09T21:50:53.928Z,25.67
2023-04-09T21:53:21.283Z,24.25
2023-04-09T21:55:48.570Z,24.70
2023-04-09T21:58:15.927Z,23.83
2023-04-09T22:00:43.270Z,25.63
2023-04-09T22:03:11.165Z,24.55
2023-04-09T22:05:38.689Z,23.08
2023-04-09T22:08:06.185Z,23.25
2023-04-09T22:10:33.590Z,26.25
2023-04-09T22:13:01.218Z,23.90
2023-04-09T22:15:29.065Z,23.45
2023-04-09T22:17:56.488Z,24.05
2023-04-09T22:20:26.176Z,25.23
2023-04-09T22:22:54.185Z,23.10
2023-04-09T22:25:22.182Z,27.38
2023-04-09T22:27:53.450Z,21.52
2023-04-09T22:30:21.827Z,24.75
2023-04-09T22:32:49.941Z,26.75
2023-04-09T22:35:18.384Z,26.15
2023-04-09T22:37:46.949Z,24.95
2023-04-09T22:40:15.555Z,26.35
2023-04-09T22:42:43.676Z,26.15
2023-04-09T22:45:11.250Z,24.48
2023-04-09T22:47:38.908Z,22.70
2023-04-09T22:50:07.585Z,23.88
2023-04-09T22:52:37.114Z,25.98
2023-04-09T22:55:05.089Z,25.15
2023-04-09T22:57:32.508Z,24.95
2023-04-09T22:59:59.878Z,25.23
2023-04-09T23:02:27.583Z,24.58
2023-04-09T23:04:55.124Z,24.48
2023-04-09T23:07:22.501Z,26.55
2023-04-09T23:09:49.891Z,27.42
2023-04-09T23:12:17.162Z,27.58
2023-04-09T23:14:44.460Z,27.85
2023-04-09T23:17:11.754Z,27.67
2023-04-09T23:19:39.058Z,28.58
2023-04-09T23:22:06.738Z,25.83
2023-04-09T23:24:34.066Z,27.50
2023-04-09T23:27:02.164Z,25.63
2023-04-09T23:29:29.435Z,25.17
2023-04-09T23:31:56.809Z,28.17
2023-04-09T23:34:24.127Z,23.73
2023-04-09T23:36:51.660Z,23.77
2023-04-09T23:39:18.971Z,24.20
2023-04-09T23:41:46.321Z,24.92
2023-04-09T23:44:13.671Z,24.85
2023-04-09T23:46:41.640Z,22.88
2023-04-09T23:49:09.056Z,26.25
2023-04-09T23:51:36.429Z,24.75
2023-04-09T23:54:03.853Z,26.60
2023-04-09T23:56:31.317Z,24.60
2023-04-09T23:58:58.778Z,24.20
